sensor_id;sensor_type;location;lat;lon;timestamp;P1;durP1;ratioP1;P2;durP2;ratioP2
80961;SDS011;70424;55.154;14.722;2023-12-07T00:01:04;30.02;;;15.18;;
80961;SDS011;70424;55.154;14.722;2023-12-07T00:03:30;29.63;;;16.17;;
80961;SDS011;70424;55.154;14.722;2023-12-07T00:05:55;33.47;;;16.83;;
80961;SDS011;70424;55.154;14.722;2023-12-07T00:08:21;31.50;;;16.33;;
80961;SDS011;70424;55.154;14.722;2023-12-07T00:10:46;32.08;;;15.77;;
80961;SDS011;70424;55.154;14.722;2023-12-07T00:13:12;32.13;;;16.70;;
80961;SDS011;70424;55.154;14.722;2023-12-07T00:15:37;33.78;;;17.52;;
80961;SDS011;70424;55.154;14.722;2023-12-07T00:18:03;30.92;;;17.52;;
80961;SDS011;70424;55.154;14.722;2023-12-07T00:20:29;30.38;;;16.42;;
80961;SDS011;70424;55.154;14.722;2023-12-07T00:22:55;30.77;;;16.88;;
80961;SDS011;70424;55.154;14.722;2023-12-07T00:25:20;32.75;;;17.00;;
80961;SDS011;70424;55.154;14.722;2023-12-07T00:27:46;32.53;;;16.00;;
80961;SDS011;70424;55.154;14.722;2023-12-07T00:30:12;34.15;;;16.10;;
80961;SDS011;70424;55.154;14.722;2023-12-07T00:32:38;36.80;;;17.38;;
80961;SDS011;70424;55.154;14.722;2023-12-07T00:35:03;32.08;;;16.50;;
80961;SDS011;70424;55.154;14.722;2023-12-07T00:37:29;34.95;;;16.45;;
80961;SDS011;70424;55.154;14.722;2023-12-07T00:39:54;36.20;;;18.17;;
80961;SDS011;70424;55.154;14.722;2023-12-07T00:42:20;32.78;;;17.35;;
80961;SDS011;70424;55.154;14.722;2023-12-07T00:44:45;33.90;;;17.20;;
80961;SDS011;70424;55.154;14.722;2023-12-07T00:47:11;34.65;;;16.48;;
80961;SDS011;70424;55.154;14.722;2023-12-07T00:49:39;38.28;;;18.70;;
80961;SDS011;70424;55.154;14.722;2023-12-07T00:52:06;34.63;;;16.92;;
80961;SDS011;70424;55.154;14.722;2023-12-07T00:54:31;38.45;;;18.83;;
80961;SDS011;70424;55.154;14.722;2023-12-07T00:56:57;39.65;;;19.23;;
80961;SDS011;70424;55.154;14.722;2023-12-07T00:59:23;42.45;;;19.98;;
80961;SDS011;70424;55.154;14.722;2023-12-07T01:01:48;42.80;;;20.30;;
80961;SDS011;70424;55.154;14.722;2023-12-07T01:04:14;39.35;;;19.77;;
80961;SDS011;70424;55.154;14.722;2023-12-07T01:06:39;38.20;;;19.10;;
80961;SDS011;70424;55.154;14.722;2023-12-07T01:09:05;36.83;;;18.77;;
80961;SDS011;70424;55.154;14.722;2023-12-07T01:11:30;38.63;;;18.42;;
80961;SDS011;70424;55.154;14.722;2023-12-07T01:13:55;37.95;;;19.20;;
80961;SDS011;70424;55.154;14.722;2023-12-07T01:16:21;40.78;;;20.35;;
80961;SDS011;70424;55.154;14.722;2023-12-07T01:18:46;41.97;;;20.15;;
80961;SDS011;70424;55.154;14.722;2023-12-07T01:21:12;38.50;;;18.77;;
80961;SDS011;70424;55.154;14.722;2023-12-07T01:23:37;37.97;;;18.08;;
80961;SDS011;70424;55.154;14.722;2023-12-07T01:26:03;33.67;;;17.58;;
80961;SDS011;70424;55.154;14.722;2023-12-07T01:28:28;41.55;;;19.52;;
80961;SDS011;70424;55.154;14.722;2023-12-07T01:30:54;38.30;;;19.52;;
80961;SDS011;70424;55.154;14.722;2023-12-07T01:33:19;40.50;;;19.45;;
80961;SDS011;70424;55.154;14.722;2023-12-07T01:35:45;39.78;;;20.25;;
80961;SDS011;70424;55.154;14.722;2023-12-07T01:38:10;42.28;;;19.75;;
80961;SDS011;70424;55.154;14.722;2023-12-07T01:40:36;38.75;;;20.08;;
80961;SDS011;70424;55.154;14.722;2023-12-07T01:43:01;39.30;;;18.63;;
80961;SDS011;70424;55.154;14.722;2023-12-07T01:45:27;40.42;;;20.58;;
80961;SDS011;70424;55.154;14.722;2023-12-07T01:47:52;43.00;;;20.63;;
80961;SDS011;70424;55.154;14.722;2023-12-07T01:50:19;46.70;;;21.38;;
80961;SDS011;70424;55.154;14.722;2023-12-07T01:52:48;43.17;;;20.25;;
80961;SDS011;70424;55.154;14.722;2023-12-07T01:55:17;43.38;;;21.10;;
80961;SDS011;70424;55.154;14.722;2023-12-07T01:57:43;42.38;;;20.80;;
80961;SDS011;70424;55.154;14.722;2023-12-07T02:00:10;40.78;;;21.60;;
80961;SDS011;70424;55.154;14.722;2023-12-07T02:02:37;41.78;;;20.55;;
80961;SDS011;70424;55.154;14.722;2023-12-07T02:05:03;44.33;;;21.25;;
80961;SDS011;70424;55.154;14.722;2023-12-07T02:07:30;42.65;;;21.05;;
80961;SDS011;70424;55.154;14.722;2023-12-07T02:09:56;41.13;;;19.85;;
80961;SDS011;70424;55.154;14.722;2023-12-07T02:12:23;45.20;;;21.40;;
80961;SDS011;70424;55.154;14.722;2023-12-07T02:14:48;40.28;;;20.77;;
80961;SDS011;70424;55.154;14.722;2023-12-07T02:17:17;41.05;;;21.67;;
80961;SDS011;70424;55.154;14.722;2023-12-07T02:19:52;44.60;;;22.20;;
80961;SDS011;70424;55.154;14.722;2023-12-07T02:22:31;45.55;;;21.33;;
80961;SDS011;70424;55.154;14.722;2023-12-07T02:25:05;44.47;;;21.35;;
80961;SDS011;70424;55.154;14.722;2023-12-07T02:27:40;46.13;;;22.70;;
80961;SDS011;70424;55.154;14.722;2023-12-07T02:30:07;43.35;;;20.27;;
80961;SDS011;70424;55.154;14.722;2023-12-07T02:32:35;42.88;;;21.27;;
80961;SDS011;70424;55.154;14.722;2023-12-07T02:35:01;40.97;;;20.45;;
80961;SDS011;70424;55.154;14.722;2023-12-07T02:37:28;40.55;;;19.73;;
80961;SDS011;70424;55.154;14.722;2023-12-07T02:39:58;44.80;;;21.45;;
80961;SDS011;70424;55.154;14.722;2023-12-07T02:42:25;44.67;;;20.67;;
80961;SDS011;70424;55.154;14.722;2023-12-07T02:44:52;45.00;;;21.38;;
80961;SDS011;70424;55.154;14.722;2023-12-07T02:47:18;46.30;;;22.40;;
80961;SDS011;70424;55.154;14.722;2023-12-07T02:49:44;39.90;;;20.02;;
80961;SDS011;70424;55.154;14.722;2023-12-07T02:52:09;39.75;;;19.80;;
80961;SDS011;70424;55.154;14.722;2023-12-07T02:54:35;47.00;;;21.80;;
80961;SDS011;70424;55.154;14.722;2023-12-07T02:57:00;45.55;;;21.63;;
80961;SDS011;70424;55.154;14.722;2023-12-07T02:59:25;43.63;;;20.85;;
80961;SDS011;70424;55.154;14.722;2023-12-07T03:01:51;39.00;;;21.00;;
80961;SDS011;70424;55.154;14.722;2023-12-07T03:04:16;43.00;;;21.05;;
80961;SDS011;70424;55.154;14.722;2023-12-07T03:06:41;44.78;;;21.00;;
80961;SDS011;70424;55.154;14.722;2023-12-07T03:09:07;49.78;;;23.42;;
80961;SDS011;70424;55.154;14.722;2023-12-07T03:11:32;40.72;;;20.98;;
80961;SDS011;70424;55.154;14.722;2023-12-07T03:13:58;51.25;;;24.77;;
80961;SDS011;70424;55.154;14.722;2023-12-07T03:16:23;46.03;;;22.48;;
80961;SDS011;70424;55.154;14.722;2023-12-07T03:18:49;44.20;;;22.00;;
80961;SDS011;70424;55.154;14.722;2023-12-07T03:21:14;49.97;;;23.60;;
80961;SDS011;70424;55.154;14.722;2023-12-07T03:23:40;48.70;;;23.30;;
80961;SDS011;70424;55.154;14.722;2023-12-07T03:26:05;46.65;;;22.48;;
80961;SDS011;70424;55.154;14.722;2023-12-07T03:28:30;47.40;;;23.98;;
80961;SDS011;70424;55.154;14.722;2023-12-07T03:30:56;45.60;;;22.30;;
80961;SDS011;70424;55.154;14.722;2023-12-07T03:33:21;48.83;;;22.58;;
80961;SDS011;70424;55.154;14.722;2023-12-07T03:35:46;41.03;;;20.88;;
80961;SDS011;70424;55.154;14.722;2023-12-07T03:38:12;49.10;;;22.13;;
80961;SDS011;70424;55.154;14.722;2023-12-07T03:40:37;47.83;;;24.10;;
80961;SDS011;70424;55.154;14.722;2023-12-07T03:43:03;50.65;;;23.92;;
80961;SDS011;70424;55.154;14.722;2023-12-07T03:45:29;44.90;;;21.08;;
80961;SDS011;70424;55.154;14.722;2023-12-07T03:47:54;49.45;;;22.75;;
80961;SDS011;70424;55.154;14.722;2023-12-07T03:50:20;48.30;;;22.25;;
80961;SDS011;70424;55.154;14.722;2023-12-07T03:52:46;51.30;;;23.52;;
80961;SDS011;70424;55.154;14.722;2023-12-07T03:55:11;47.22;;;21.98;;
80961;SDS011;70424;55.154;14.722;2023-12-07T03:57:37;50.38;;;24.52;;
80961;SDS011;70424;55.154;14.722;2023-12-07T04:00:02;55.40;;;26.50;;
80961;SDS011;70424;55.154;14.722;2023-12-07T04:02:29;51.55;;;24.25;;
80961;SDS011;70424;55.154;14.722;2023-12-07T04:04:58;50.13;;;23.50;;
80961;SDS011;70424;55.154;14.722;2023-12-07T04:07:26;46.78;;;22.77;;
80961;SDS011;70424;55.154;14.722;2023-12-07T04:09:53;48.80;;;24.38;;
80961;SDS011;70424;55.154;14.722;2023-12-07T04:12:19;49.58;;;24.15;;
80961;SDS011;70424;55.154;14.722;2023-12-07T04:14:44;54.63;;;26.10;;
80961;SDS011;70424;55.154;14.722;2023-12-07T04:17:10;58.67;;;27.98;;
80961;SDS011;70424;55.154;14.722;2023-12-07T04:19:35;55.90;;;27.08;;
80961;SDS011;70424;55.154;14.722;2023-12-07T04:22:01;59.35;;;27.73;;
80961;SDS011;70424;55.154;14.722;2023-12-07T04:24:27;61.20;;;28.75;;
80961;SDS011;70424;55.154;14.722;2023-12-07T04:26:52;54.85;;;27.45;;
80961;SDS011;70424;55.154;14.722;2023-12-07T04:29:17;55.15;;;26.48;;
80961;SDS011;70424;55.154;14.722;2023-12-07T04:31:43;55.85;;;26.10;;
80961;SDS011;70424;55.154;14.722;2023-12-07T04:34:09;58.50;;;27.35;;
80961;SDS011;70424;55.154;14.722;2023-12-07T04:36:34;55.10;;;24.98;;
80961;SDS011;70424;55.154;14.722;2023-12-07T04:39:00;52.60;;;24.83;;
80961;SDS011;70424;55.154;14.722;2023-12-07T04:41:25;55.83;;;26.48;;
80961;SDS011;70424;55.154;14.722;2023-12-07T04:43:50;53.50;;;26.55;;
80961;SDS011;70424;55.154;14.722;2023-12-07T04:46:16;60.35;;;27.67;;
80961;SDS011;70424;55.154;14.722;2023-12-07T04:48:41;54.40;;;26.05;;
80961;SDS011;70424;55.154;14.722;2023-12-07T04:51:07;56.33;;;26.60;;
80961;SDS011;70424;55.154;14.722;2023-12-07T04:53:32;54.42;;;25.02;;
80961;SDS011;70424;55.154;14.722;2023-12-07T04:55:58;60.10;;;27.33;;
80961;SDS011;70424;55.154;14.722;2023-12-07T04:58:23;54.75;;;24.85;;
80961;SDS011;70424;55.154;14.722;2023-12-07T05:00:49;64.65;;;26.48;;
80961;SDS011;70424;55.154;14.722;2023-12-07T05:03:14;60.38;;;26.60;;
80961;SDS011;70424;55.154;14.722;2023-12-07T05:05:39;58.92;;;26.45;;
80961;SDS011;70424;55.154;14.722;2023-12-07T05:08:05;68.43;;;29.55;;
80961;SDS011;70424;55.154;14.722;2023-12-07T05:10:30;60.72;;;26.30;;
80961;SDS011;70424;55.154;14.722;2023-12-07T05:12:56;62.97;;;28.63;;
80961;SDS011;70424;55.154;14.722;2023-12-07T05:15:22;61.15;;;27.63;;
80961;SDS011;70424;55.154;14.722;2023-12-07T05:17:47;63.78;;;29.90;;
80961;SDS011;70424;55.154;14.722;2023-12-07T05:20:12;65.15;;;30.27;;
80961;SDS011;70424;55.154;14.722;2023-12-07T05:22:38;64.30;;;29.92;;
80961;SDS011;70424;55.154;14.722;2023-12-07T05:25:03;66.65;;;29.20;;
80961;SDS011;70424;55.154;14.722;2023-12-07T05:27:30;64.78;;;28.02;;
80961;SDS011;70424;55.154;14.722;2023-12-07T05:29:55;60.42;;;28.15;;
80961;SDS011;70424;55.154;14.722;2023-12-07T05:32:20;61.08;;;29.50;;
80961;SDS011;70424;55.154;14.722;2023-12-07T05:34:46;66.13;;;30.60;;
80961;SDS011;70424;55.154;14.722;2023-12-07T05:37:12;64.20;;;28.58;;
80961;SDS011;70424;55.154;14.722;2023-12-07T05:39:37;67.00;;;28.55;;
80961;SDS011;70424;55.154;14.722;2023-12-07T05:42:03;65.75;;;27.98;;
80961;SDS011;70424;55.154;14.722;2023-12-07T05:44:29;62.40;;;27.52;;
80961;SDS011;70424;55.154;14.722;2023-12-07T05:46:55;66.47;;;30.65;;
80961;SDS011;70424;55.154;14.722;2023-12-07T05:49:22;62.40;;;29.35;;
80961;SDS011;70424;55.154;14.722;2023-12-07T05:51:48;68.93;;;28.90;;
80961;SDS011;70424;55.154;14.722;2023-12-07T05:54:14;63.53;;;27.88;;
80961;SDS011;70424;55.154;14.722;2023-12-07T05:56:39;64.72;;;28.48;;
80961;SDS011;70424;55.154;14.722;2023-12-07T05:59:05;59.50;;;28.00;;
80961;SDS011;70424;55.154;14.722;2023-12-07T06:01:31;67.53;;;30.33;;
80961;SDS011;70424;55.154;14.722;2023-12-07T06:03:57;75.57;;;31.02;;
80961;SDS011;70424;55.154;14.722;2023-12-07T06:06:23;67.13;;;28.95;;
80961;SDS011;70424;55.154;14.722;2023-12-07T06:08:48;62.08;;;28.48;;
80961;SDS011;70424;55.154;14.722;2023-12-07T06:11:14;71.38;;;31.73;;
80961;SDS011;70424;55.154;14.722;2023-12-07T06:13:39;67.95;;;28.77;;
80961;SDS011;70424;55.154;14.722;2023-12-07T06:16:05;68.47;;;30.42;;
80961;SDS011;70424;55.154;14.722;2023-12-07T06:18:31;71.82;;;31.52;;
80961;SDS011;70424;55.154;14.722;2023-12-07T06:20:57;69.78;;;31.25;;
80961;SDS011;70424;55.154;14.722;2023-12-07T06:23:22;81.10;;;34.50;;
80961;SDS011;70424;55.154;14.722;2023-12-07T06:25:47;84.05;;;33.88;;
80961;SDS011;70424;55.154;14.722;2023-12-07T06:28:14;70.47;;;31.90;;
80961;SDS011;70424;55.154;14.722;2023-12-07T06:30:39;89.85;;;34.22;;
80961;SDS011;70424;55.154;14.722;2023-12-07T06:33:05;85.85;;;34.20;;
80961;SDS011;70424;55.154;14.722;2023-12-07T06:35:30;87.97;;;34.25;;
80961;SDS011;70424;55.154;14.722;2023-12-07T06:37:56;79.90;;;33.70;;
80961;SDS011;70424;55.154;14.722;2023-12-07T06:40:21;76.55;;;32.92;;
80961;SDS011;70424;55.154;14.722;2023-12-07T06:42:46;82.40;;;34.28;;
80961;SDS011;70424;55.154;14.722;2023-12-07T06:45:13;87.50;;;33.45;;
80961;SDS011;70424;55.154;14.722;2023-12-07T06:47:42;84.40;;;34.78;;
80961;SDS011;70424;55.154;14.722;2023-12-07T06:50:07;83.53;;;34.85;;
80961;SDS011;70424;55.154;14.722;2023-12-07T06:52:35;84.22;;;34.28;;
80961;SDS011;70424;55.154;14.722;2023-12-07T06:55:04;79.97;;;34.95;;
80961;SDS011;70424;55.154;14.722;2023-12-07T06:57:29;79.32;;;33.00;;
80961;SDS011;70424;55.154;14.722;2023-12-07T06:59:55;86.82;;;34.58;;
80961;SDS011;70424;55.154;14.722;2023-12-07T07:02:21;81.03;;;32.88;;
80961;SDS011;70424;55.154;14.722;2023-12-07T07:04:48;99.70;;;35.90;;
80961;SDS011;70424;55.154;14.722;2023-12-07T07:07:14;85.75;;;33.63;;
80961;SDS011;70424;55.154;14.722;2023-12-07T07:09:40;81.82;;;33.90;;
80961;SDS011;70424;55.154;14.722;2023-12-07T07:12:05;79.18;;;33.15;;
80961;SDS011;70424;55.154;14.722;2023-12-07T07:14:31;80.43;;;31.77;;
80961;SDS011;70424;55.154;14.722;2023-12-07T07:16:56;73.72;;;31.30;;
80961;SDS011;70424;55.154;14.722;2023-12-07T07:19:22;71.05;;;33.22;;
80961;SDS011;70424;55.154;14.722;2023-12-07T07:21:47;86.15;;;34.30;;
80961;SDS011;70424;55.154;14.722;2023-12-07T07:24:12;94.05;;;35.72;;
80961;SDS011;70424;55.154;14.722;2023-12-07T07:26:38;100.63;;;37.28;;
80961;SDS011;70424;55.154;14.722;2023-12-07T07:29:03;93.25;;;35.03;;
80961;SDS011;70424;55.154;14.722;2023-12-07T07:31:29;88.88;;;36.22;;
80961;SDS011;70424;55.154;14.722;2023-12-07T07:33:56;85.97;;;34.83;;
80961;SDS011;70424;55.154;14.722;2023-12-07T07:36:21;88.78;;;34.90;;
80961;SDS011;70424;55.154;14.722;2023-12-07T07:38:47;88.18;;;33.85;;
80961;SDS011;70424;55.154;14.722;2023-12-07T07:41:13;86.43;;;35.53;;
80961;SDS011;70424;55.154;14.722;2023-12-07T07:43:39;84.50;;;34.85;;
80961;SDS011;70424;55.154;14.722;2023-12-07T07:46:04;97.72;;;35.63;;
80961;SDS011;70424;55.154;14.722;2023-12-07T07:48:30;81.78;;;33.40;;
80961;SDS011;70424;55.154;14.722;2023-12-07T07:50:55;92.47;;;34.30;;
80961;SDS011;70424;55.154;14.722;2023-12-07T07:53:21;79.35;;;33.72;;
80961;SDS011;70424;55.154;14.722;2023-12-07T07:55:46;87.15;;;34.83;;
80961;SDS011;70424;55.154;14.722;2023-12-07T07:58:11;86.70;;;33.15;;
80961;SDS011;70424;55.154;14.722;2023-12-07T08:00:37;93.65;;;34.45;;
80961;SDS011;70424;55.154;14.722;2023-12-07T08:03:02;90.05;;;35.47;;
80961;SDS011;70424;55.154;14.722;2023-12-07T08:05:28;82.22;;;32.65;;
80961;SDS011;70424;55.154;14.722;2023-12-07T08:07:53;82.35;;;34.10;;
80961;SDS011;70424;55.154;14.722;2023-12-07T08:10:19;85.03;;;36.72;;
80961;SDS011;70424;55.154;14.722;2023-12-07T08:12:45;83.13;;;34.72;;
80961;SDS011;70424;55.154;14.722;2023-12-07T08:15:11;91.07;;;34.72;;
80961;SDS011;70424;55.154;14.722;2023-12-07T08:17:39;87.25;;;36.00;;
80961;SDS011;70424;55.154;14.722;2023-12-07T08:20:06;82.10;;;34.08;;
80961;SDS011;70424;55.154;14.722;2023-12-07T08:22:32;94.20;;;35.15;;
80961;SDS011;70424;55.154;14.722;2023-12-07T08:24:57;88.00;;;34.35;;
80961;SDS011;70424;55.154;14.722;2023-12-07T08:27:23;92.05;;;36.10;;
80961;SDS011;70424;55.154;14.722;2023-12-07T08:29:49;86.78;;;34.83;;
80961;SDS011;70424;55.154;14.722;2023-12-07T08:32:15;91.20;;;35.38;;
80961;SDS011;70424;55.154;14.722;2023-12-07T08:34:41;84.70;;;34.60;;
80961;SDS011;70424;55.154;14.722;2023-12-07T08:37:06;83.18;;;33.53;;
80961;SDS011;70424;55.154;14.722;2023-12-07T08:39:31;88.35;;;32.92;;
80961;SDS011;70424;55.154;14.722;2023-12-07T08:41:57;89.55;;;34.15;;
80961;SDS011;70424;55.154;14.722;2023-12-07T08:44:22;71.72;;;31.67;;
80961;SDS011;70424;55.154;14.722;2023-12-07T08:46:47;86.40;;;34.85;;
80961;SDS011;70424;55.154;14.722;2023-12-07T08:49:13;87.18;;;34.13;;
80961;SDS011;70424;55.154;14.722;2023-12-07T08:51:38;88.47;;;35.38;;
80961;SDS011;70424;55.154;14.722;2023-12-07T08:54:04;95.18;;;33.80;;
80961;SDS011;70424;55.154;14.722;2023-12-07T08:56:30;87.93;;;34.17;;
80961;SDS011;70424;55.154;14.722;2023-12-07T08:58:56;86.20;;;35.85;;
80961;SDS011;70424;55.154;14.722;2023-12-07T09:01:21;99.38;;;36.03;;
80961;SDS011;70424;55.154;14.722;2023-12-07T09:03:46;91.00;;;35.47;;
80961;SDS011;70424;55.154;14.722;2023-12-07T09:06:12;92.30;;;35.25;;
80961;SDS011;70424;55.154;14.722;2023-12-07T09:08:37;89.25;;;33.60;;
80961;SDS011;70424;55.154;14.722;2023-12-07T09:11:03;92.18;;;34.33;;
80961;SDS011;70424;55.154;14.722;2023-12-07T09:13:29;88.97;;;32.58;;
80961;SDS011;70424;55.154;14.722;2023-12-07T09:15:54;87.00;;;32.95;;
80961;SDS011;70424;55.154;14.722;2023-12-07T09:18:20;90.75;;;34.28;;
80961;SDS011;70424;55.154;14.722;2023-12-07T09:20:45;92.25;;;34.83;;
80961;SDS011;70424;55.154;14.722;2023-12-07T09:23:11;101.28;;;34.60;;
80961;SDS011;70424;55.154;14.722;2023-12-07T09:25:37;95.05;;;36.35;;
80961;SDS011;70424;55.154;14.722;2023-12-07T09:28:03;93.43;;;36.38;;
80961;SDS011;70424;55.154;14.722;2023-12-07T09:30:29;96.43;;;36.20;;
80961;SDS011;70424;55.154;14.722;2023-12-07T09:32:54;94.25;;;36.47;;
80961;SDS011;70424;55.154;14.722;2023-12-07T09:35:20;82.80;;;34.72;;
80961;SDS011;70424;55.154;14.722;2023-12-07T09:37:46;92.03;;;35.20;;
80961;SDS011;70424;55.154;14.722;2023-12-07T09:42:45;93.45;;;35.78;;
80961;SDS011;70424;55.154;14.722;2023-12-07T09:45:12;100.90;;;36.37;;
80961;SDS011;70424;55.154;14.722;2023-12-07T09:47:39;95.97;;;34.53;;
80961;SDS011;70424;55.154;14.722;2023-12-07T09:50:05;92.45;;;34.22;;
80961;SDS011;70424;55.154;14.722;2023-12-07T09:54:58;90.00;;;33.63;;
80961;SDS011;70424;55.154;14.722;2023-12-07T09:57:25;97.95;;;36.20;;
80961;SDS011;70424;55.154;14.722;2023-12-07T09:59:51;105.55;;;37.58;;
80961;SDS011;70424;55.154;14.722;2023-12-07T10:02:16;106.03;;;36.78;;
80961;SDS011;70424;55.154;14.722;2023-12-07T10:04:42;103.85;;;37.53;;
80961;SDS011;70424;55.154;14.722;2023-12-07T10:07:08;107.07;;;37.78;;
80961;SDS011;70424;55.154;14.722;2023-12-07T10:09:43;111.20;;;37.33;;
80961;SDS011;70424;55.154;14.722;2023-12-07T10:12:08;111.05;;;37.33;;
80961;SDS011;70424;55.154;14.722;2023-12-07T10:14:35;116.97;;;36.58;;
80961;SDS011;70424;55.154;14.722;2023-12-07T10:17:00;111.90;;;37.75;;
80961;SDS011;70424;55.154;14.722;2023-12-07T10:19:26;104.50;;;37.75;;
80961;SDS011;70424;55.154;14.722;2023-12-07T10:21:52;111.15;;;35.58;;
80961;SDS011;70424;55.154;14.722;2023-12-07T10:24:18;114.18;;;36.40;;
80961;SDS011;70424;55.154;14.722;2023-12-07T10:26:46;125.97;;;39.42;;
80961;SDS011;70424;55.154;14.722;2023-12-07T10:29:13;116.77;;;38.53;;
80961;SDS011;70424;55.154;14.722;2023-12-07T10:31:38;105.25;;;37.28;;
80961;SDS011;70424;55.154;14.722;2023-12-07T10:34:07;103.97;;;36.83;;
80961;SDS011;70424;55.154;14.722;2023-12-07T10:36:32;102.28;;;36.15;;
80961;SDS011;70424;55.154;14.722;2023-12-07T10:38:58;106.97;;;36.10;;
80961;SDS011;70424;55.154;14.722;2023-12-07T10:41:24;100.95;;;36.53;;
80961;SDS011;70424;55.154;14.722;2023-12-07T10:43:54;101.25;;;35.95;;
80961;SDS011;70424;55.154;14.722;2023-12-07T10:46:24;96.25;;;35.30;;
80961;SDS011;70424;55.154;14.722;2023-12-07T10:48:51;106.80;;;35.88;;
80961;SDS011;70424;55.154;14.722;2023-12-07T10:51:29;98.35;;;34.65;;
80961;SDS011;70424;55.154;14.722;2023-12-07T10:53:55;106.90;;;35.38;;
80961;SDS011;70424;55.154;14.722;2023-12-07T10:56:33;99.45;;;36.65;;
80961;SDS011;70424;55.154;14.722;2023-12-07T10:59:05;97.20;;;35.50;;
80961;SDS011;70424;55.154;14.722;2023-12-07T11:01:33;90.10;;;33.55;;
80961;SDS011;70424;55.154;14.722;2023-12-07T11:04:00;86.85;;;34.38;;
80961;SDS011;70424;55.154;14.722;2023-12-07T11:06:26;95.53;;;35.60;;
80961;SDS011;70424;55.154;14.722;2023-12-07T11:08:54;88.97;;;31.65;;
80961;SDS011;70424;55.154;14.722;2023-12-07T11:11:24;98.72;;;35.50;;
80961;SDS011;70424;55.154;14.722;2023-12-07T11:14:08;83.85;;;32.55;;
80961;SDS011;70424;55.154;14.722;2023-12-07T11:16:41;87.35;;;31.75;;
80961;SDS011;70424;55.154;14.722;2023-12-07T11:19:34;83.82;;;30.48;;
80961;SDS011;70424;55.154;14.722;2023-12-07T11:22:10;79.22;;;30.58;;
80961;SDS011;70424;55.154;14.722;2023-12-07T11:24:36;78.38;;;31.05;;
80961;SDS011;70424;55.154;14.722;2023-12-07T11:27:02;88.20;;;32.05;;
80961;SDS011;70424;55.154;14.722;2023-12-07T11:29:28;76.35;;;31.80;;
80961;SDS011;70424;55.154;14.722;2023-12-07T11:32:01;80.80;;;30.73;;
80961;SDS011;70424;55.154;14.722;2023-12-07T11:34:38;78.75;;;29.98;;
80961;SDS011;70424;55.154;14.722;2023-12-07T11:37:05;85.47;;;30.50;;
80961;SDS011;70424;55.154;14.722;2023-12-07T11:39:35;75.63;;;29.30;;
80961;SDS011;70424;55.154;14.722;2023-12-07T11:42:12;83.82;;;31.55;;
80961;SDS011;70424;55.154;14.722;2023-12-07T11:44:40;75.93;;;30.30;;
80961;SDS011;70424;55.154;14.722;2023-12-07T11:47:07;73.53;;;28.63;;
80961;SDS011;70424;55.154;14.722;2023-12-07T11:49:33;71.72;;;30.00;;
80961;SDS011;70424;55.154;14.722;2023-12-07T11:51:59;70.50;;;29.30;;
80961;SDS011;70424;55.154;14.722;2023-12-07T11:54:28;73.93;;;30.75;;
80961;SDS011;70424;55.154;14.722;2023-12-07T11:56:54;73.63;;;30.52;;
80961;SDS011;70424;55.154;14.722;2023-12-07T11:59:20;74.40;;;32.25;;
80961;SDS011;70424;55.154;14.722;2023-12-07T12:01:46;67.88;;;29.50;;
80961;SDS011;70424;55.154;14.722;2023-12-07T12:04:12;69.00;;;29.88;;
80961;SDS011;70424;55.154;14.722;2023-12-07T12:06:38;82.35;;;31.92;;
80961;SDS011;70424;55.154;14.722;2023-12-07T12:09:03;78.70;;;30.95;;
80961;SDS011;70424;55.154;14.722;2023-12-07T12:11:28;77.45;;;31.33;;
80961;SDS011;70424;55.154;14.722;2023-12-07T12:13:54;74.90;;;29.98;;
80961;SDS011;70424;55.154;14.722;2023-12-07T12:16:20;70.53;;;30.85;;
80961;SDS011;70424;55.154;14.722;2023-12-07T12:18:46;78.10;;;30.73;;
80961;SDS011;70424;55.154;14.722;2023-12-07T12:21:11;77.10;;;31.83;;
80961;SDS011;70424;55.154;14.722;2023-12-07T12:23:37;76.22;;;30.70;;
80961;SDS011;70424;55.154;14.722;2023-12-07T12:26:05;77.40;;;30.55;;
80961;SDS011;70424;55.154;14.722;2023-12-07T12:28:31;68.03;;;29.75;;
80961;SDS011;70424;55.154;14.722;2023-12-07T12:30:57;75.60;;;31.48;;
80961;SDS011;70424;55.154;14.722;2023-12-07T12:33:23;85.55;;;31.52;;
80961;SDS011;70424;55.154;14.722;2023-12-07T12:36:01;75.50;;;30.55;;
80961;SDS011;70424;55.154;14.722;2023-12-07T12:38:29;71.43;;;29.92;;
80961;SDS011;70424;55.154;14.722;2023-12-07T12:40:54;71.88;;;30.95;;
80961;SDS011;70424;55.154;14.722;2023-12-07T12:43:20;76.13;;;31.02;;
80961;SDS011;70424;55.154;14.722;2023-12-07T12:45:46;72.28;;;30.40;;
80961;SDS011;70424;55.154;14.722;2023-12-07T12:48:12;67.45;;;29.15;;
80961;SDS011;70424;55.154;14.722;2023-12-07T12:50:38;65.65;;;30.15;;
80961;SDS011;70424;55.154;14.722;2023-12-07T12:53:06;71.80;;;29.60;;
80961;SDS011;70424;55.154;14.722;2023-12-07T12:55:36;61.97;;;29.98;;
80961;SDS011;70424;55.154;14.722;2023-12-07T12:58:03;66.90;;;29.33;;
80961;SDS011;70424;55.154;14.722;2023-12-07T13:00:30;68.68;;;30.70;;
80961;SDS011;70424;55.154;14.722;2023-12-07T13:02:57;70.78;;;30.73;;
80961;SDS011;70424;55.154;14.722;2023-12-07T13:05:23;70.35;;;29.70;;
80961;SDS011;70424;55.154;14.722;2023-12-07T13:07:49;72.45;;;30.92;;
80961;SDS011;70424;55.154;14.722;2023-12-07T13:10:15;66.53;;;28.90;;
80961;SDS011;70424;55.154;14.722;2023-12-07T13:12:41;64.93;;;29.48;;
80961;SDS011;70424;55.154;14.722;2023-12-07T13:15:06;69.15;;;29.48;;
80961;SDS011;70424;55.154;14.722;2023-12-07T13:17:32;71.10;;;29.85;;
80961;SDS011;70424;55.154;14.722;2023-12-07T13:19:58;70.70;;;29.25;;
80961;SDS011;70424;55.154;14.722;2023-12-07T13:22:23;68.47;;;28.58;;
80961;SDS011;70424;55.154;14.722;2023-12-07T13:24:48;74.57;;;31.33;;
80961;SDS011;70424;55.154;14.722;2023-12-07T13:27:17;61.10;;;27.60;;
80961;SDS011;70424;55.154;14.722;2023-12-07T13:29:43;68.72;;;29.48;;
80961;SDS011;70424;55.154;14.722;2023-12-07T13:32:08;64.43;;;28.55;;
80961;SDS011;70424;55.154;14.722;2023-12-07T13:34:35;66.78;;;28.48;;
80961;SDS011;70424;55.154;14.722;2023-12-07T13:37:00;67.75;;;30.45;;
80961;SDS011;70424;55.154;14.722;2023-12-07T13:39:25;65.00;;;28.63;;
80961;SDS011;70424;55.154;14.722;2023-12-07T13:41:55;66.80;;;30.58;;
80961;SDS011;70424;55.154;14.722;2023-12-07T13:44:20;71.07;;;29.77;;
80961;SDS011;70424;55.154;14.722;2023-12-07T13:46:46;63.72;;;28.48;;
80961;SDS011;70424;55.154;14.722;2023-12-07T13:49:11;66.22;;;28.13;;
80961;SDS011;70424;55.154;14.722;2023-12-07T13:51:39;64.45;;;29.15;;
80961;SDS011;70424;55.154;14.722;2023-12-07T13:54:04;68.78;;;28.02;;
80961;SDS011;70424;55.154;14.722;2023-12-07T13:56:30;58.97;;;27.02;;
80961;SDS011;70424;55.154;14.722;2023-12-07T13:58:55;65.93;;;27.92;;
80961;SDS011;70424;55.154;14.722;2023-12-07T14:01:21;62.67;;;26.65;;
80961;SDS011;70424;55.154;14.722;2023-12-07T14:03:46;55.15;;;27.75;;
80961;SDS011;70424;55.154;14.722;2023-12-07T14:06:20;59.35;;;27.42;;
80961;SDS011;70424;55.154;14.722;2023-12-07T14:08:47;60.60;;;28.52;;